JFK weather

John F Kennedy International Airport
New York, New York, United States

Public forecast

Using degrees Fahrenheit for public forecast. Weather courtesy of forecast.io.

Current aviation weather report (METAR) for John F Kennedy International Airport

Retrieved 2020/01/22 06:51 UTC (44 minutes ago):

KJFK 220651Z 35003KT 10SM FEW250 M04/M11 A3044 RMK AO2 SLP308 T10391111

Aviation forecast (TAF) for John F Kennedy International Airport

Retrieved 2020/01/22 06:31 UTC (1 hour ago):

TAF KJFK 220527Z 2206/2312 34005KT P6SM FEW250 FM221400 36002KT P6SM FEW250 FM221900 26005KT P6SM SKC FM230200 VRB02KT P6SM SKC